createdAt,value
2023-01-06T00:02:28.834Z,2.58
2023-01-06T00:05:34.404Z,2.78
2023-01-06T00:08:40.695Z,3.00
2023-01-06T00:11:46.221Z,2.47
2023-01-06T00:14:53.914Z,3.50
2023-01-06T00:17:59.344Z,3.03
2023-01-06T00:21:05.558Z,2.40
2023-01-06T00:24:12.293Z,2.20
2023-01-06T00:27:17.318Z,2.42
2023-01-06T00:30:25.474Z,2.78
2023-01-06T00:33:32.085Z,2.67
2023-01-06T00:36:37.390Z,3.55
2023-01-06T00:39:42.646Z,2.47
2023-01-06T00:42:48.378Z,2.15
2023-01-06T00:45:57.344Z,2.22
2023-01-06T00:49:05.827Z,2.72
2023-01-06T00:52:14.402Z,2.25
2023-01-06T00:55:19.785Z,2.28
2023-01-06T00:58:25.100Z,3.00
2023-01-06T01:01:33.266Z,2.08
2023-01-06T01:04:42.206Z,2.85
2023-01-06T01:07:48.166Z,2.70
2023-01-06T01:10:53.631Z,2.50
2023-01-06T01:13:59.339Z,2.40
2023-01-06T01:17:07.819Z,2.45
2023-01-06T01:20:13.725Z,2.45
2023-01-06T01:23:18.894Z,2.50
2023-01-06T01:26:24.301Z,2.35
2023-01-06T01:29:30.092Z,3.05
2023-01-06T01:32:38.129Z,2.67
2023-01-06T01:35:43.568Z,3.00
2023-01-06T01:38:48.856Z,3.25
2023-01-06T01:41:54.651Z,2.58
2023-01-06T01:45:06.001Z,3.03
2023-01-06T01:48:17.623Z,2.80
2023-01-06T01:51:24.432Z,2.65
2023-01-06T01:54:31.819Z,2.60
2023-01-06T01:57:38.283Z,3.45
2023-01-06T02:00:44.303Z,3.00
2023-01-06T02:03:52.760Z,3.03
2023-01-06T02:06:58.506Z,2.58
2023-01-06T02:10:07.387Z,3.13
2023-01-06T02:13:12.727Z,2.97
2023-01-06T02:16:41.907Z,2.75
2023-01-06T02:20:17.910Z,2.63
2023-01-06T02:23:38.520Z,2.60
2023-01-06T02:27:04.359Z,2.45
2023-01-06T02:30:24.733Z,2.17
2023-01-06T02:33:36.412Z,2.17
2023-01-06T02:36:47.630Z,2.40
2023-01-06T02:39:58.231Z,1.90
2023-01-06T02:43:09.788Z,2.63
2023-01-06T02:46:23.219Z,2.47
2023-01-06T02:49:34.399Z,2.90
2023-01-06T02:52:45.991Z,3.13
2023-01-06T02:55:53.063Z,2.88
2023-01-06T02:59:02.457Z,2.67
2023-01-06T03:02:09.619Z,3.70
2023-01-06T03:05:19.476Z,3.10
2023-01-06T03:08:25.829Z,2.28
2023-01-06T03:11:33.872Z,2.67
2023-01-06T03:14:42.161Z,2.75
2023-01-06T03:17:47.782Z,3.17
2023-01-06T03:20:57.771Z,2.50
2023-01-06T03:24:03.223Z,2.42
2023-01-06T03:27:09.291Z,2.78
2023-01-06T03:30:15.639Z,2.53
2023-01-06T03:33:25.087Z,1.90
2023-01-06T03:36:38.726Z,2.85
2023-01-06T03:39:49.296Z,2.88
2023-01-06T03:43:09.240Z,2.58
2023-01-06T03:46:20.779Z,2.95
2023-01-06T03:49:32.068Z,3.83
2023-01-06T03:52:44.006Z,3.33
2023-01-06T03:55:50.726Z,3.70
2023-01-06T03:58:58.394Z,2.60
2023-01-06T04:02:05.821Z,2.83
2023-01-06T04:05:13.424Z,2.67
2023-01-06T04:08:22.943Z,3.47
2023-01-06T04:11:41.350Z,2.70
2023-01-06T04:14:47.708Z,2.35
2023-01-06T04:17:54.541Z,3.17
2023-01-06T04:21:00.252Z,2.38
2023-01-06T04:24:10.577Z,2.83
2023-01-06T04:27:16.097Z,2.78
2023-01-06T04:30:21.279Z,2.92
2023-01-06T04:33:27.248Z,2.50
2023-01-06T04:36:36.651Z,3.33
2023-01-06T04:39:44.849Z,3.13
2023-01-06T04:43:02.725Z,3.33
2023-01-06T04:46:08.289Z,2.55
2023-01-06T04:49:14.099Z,3.78
2023-01-06T04:52:19.567Z,2.40
2023-01-06T04:55:27.556Z,4.18
2023-01-06T04:58:33.092Z,2.88
2023-01-06T05:01:38.525Z,2.58
2023-01-06T05:04:48.041Z,2.92
2023-01-06T05:07:56.469Z,2.88
2023-01-06T05:11:08.257Z,3.00
2023-01-06T05:14:13.632Z,3.50
2023-01-06T05:17:18.971Z,3.50
2023-01-06T05:20:24.648Z,2.67
2023-01-06T05:23:30.005Z,2.50
2023-01-06T05:26:37.699Z,2.70
2023-01-06T05:29:43.247Z,2.20
2023-01-06T05:32:48.757Z,3.63
2023-01-06T05:36:00.324Z,2.70
2023-01-06T05:39:05.739Z,2.40
2023-01-06T05:42:13.728Z,3.10
2023-01-06T05:45:19.143Z,2.88
2023-01-06T05:48:27.116Z,2.78
2023-01-06T05:51:32.760Z,3.28
2023-01-06T05:54:38.204Z,2.88
2023-01-06T05:57:46.319Z,2.90
2023-01-06T06:00:51.618Z,3.35
2023-01-06T06:03:57.748Z,3.17
2023-01-06T06:07:03.186Z,2.87
2023-01-06T06:10:09.638Z,1.85
2023-01-06T06:13:17.456Z,3.10
2023-01-06T06:16:23.573Z,3.00
2023-01-06T06:19:29.025Z,3.07
2023-01-06T06:22:34.377Z,2.45
2023-01-06T06:25:39.813Z,3.80
2023-01-06T06:28:47.590Z,2.80
2023-01-06T06:31:53.881Z,3.10
2023-01-06T06:35:00.929Z,3.28
2023-01-06T06:38:09.165Z,4.47
2023-01-06T06:41:16.659Z,3.25
2023-01-06T06:44:26.219Z,2.50
2023-01-06T06:47:33.040Z,2.90
2023-01-06T06:50:40.131Z,3.72
2023-01-06T06:53:46.910Z,3.47
2023-01-06T06:56:52.877Z,3.95
2023-01-06T07:00:00.944Z,4.30
2023-01-06T07:03:08.784Z,2.78
2023-01-06T07:06:16.064Z,3.60
2023-01-06T07:12:26.628Z,3.85
2023-01-06T07:15:34.500Z,3.22
2023-01-06T07:18:40.281Z,3.60
2023-01-06T07:21:45.883Z,3.00
2023-01-06T07:24:51.082Z,4.15
2023-01-06T07:27:57.792Z,3.30
2023-01-06T07:31:05.779Z,4.10
2023-01-06T07:34:11.162Z,4.18
2023-01-06T07:37:16.389Z,3.15
2023-01-06T07:40:22.275Z,3.70
2023-01-06T07:43:27.514Z,3.50
2023-01-06T07:46:35.559Z,3.85
2023-01-06T07:49:40.921Z,4.13
2023-01-06T07:52:46.374Z,3.92
2023-01-06T07:55:55.536Z,4.68
2023-01-06T07:59:01.075Z,4.50
2023-01-06T08:02:09.102Z,3.92
2023-01-06T08:05:14.717Z,3.85
2023-01-06T08:08:20.131Z,4.07
2023-01-06T08:11:25.529Z,4.32
2023-01-06T08:14:31.125Z,4.57
2023-01-06T08:17:39.298Z,4.10
2023-01-06T08:20:44.365Z,4.00
2023-01-06T08:23:50.153Z,4.63
2023-01-06T08:26:55.418Z,4.35
2023-01-06T08:30:00.824Z,4.30
2023-01-06T08:33:08.540Z,5.88
2023-01-06T08:36:15.704Z,4.95
2023-01-06T08:39:20.955Z,4.63
2023-01-06T08:42:26.878Z,4.15
2023-01-06T08:45:31.901Z,4.78
2023-01-06T08:48:40.211Z,4.50
2023-01-06T08:51:45.771Z,4.60
2023-01-06T08:54:51.068Z,4.22
2023-01-06T08:57:56.549Z,3.83
2023-01-06T09:01:02.174Z,5.85
2023-01-06T09:04:10.643Z,5.10
2023-01-06T09:07:15.799Z,4.53
2023-01-06T09:10:21.955Z,5.28
2023-01-06T09:13:27.363Z,5.57
2023-01-06T09:16:32.781Z,4.70
2023-01-06T09:19:40.847Z,6.03
2023-01-06T09:22:47.799Z,3.95
2023-01-06T09:25:53.431Z,4.50
2023-01-06T09:28:59.034Z,3.38
2023-01-06T09:32:04.602Z,3.60
2023-01-06T09:35:13.513Z,4.22
2023-01-06T09:38:19.328Z,5.28
2023-01-06T09:41:45.539Z,4.60
2023-01-06T09:44:53.694Z,4.68
2023-01-06T09:48:01.055Z,5.30
2023-01-06T09:54:18.010Z,3.75
2023-01-06T09:57:25.800Z,2.85
2023-01-06T10:00:37.170Z,4.38
2023-01-06T10:03:42.606Z,4.15
2023-01-06T10:06:51.869Z,3.90
2023-01-06T10:10:05.127Z,4.80
2023-01-06T10:13:17.942Z,4.28
2023-01-06T10:16:29.493Z,4.57
2023-01-06T10:19:40.705Z,4.60
2023-01-06T10:22:49.528Z,4.03
2023-01-06T10:25:58.638Z,5.32
2023-01-06T10:29:05.960Z,4.93
2023-01-06T10:32:14.645Z,4.22
2023-01-06T10:35:22.115Z,4.35
2023-01-06T10:38:30.717Z,3.92
2023-01-06T10:41:44.197Z,7.78
2023-01-06T10:44:49.779Z,5.00
2023-01-06T10:47:55.722Z,5.25
2023-01-06T10:51:01.222Z,4.30
2023-01-06T10:54:08.174Z,4.97
2023-01-06T10:57:18.741Z,4.25
2023-01-06T11:00:25.335Z,5.25
2023-01-06T11:03:34.534Z,5.65
2023-01-06T11:06:41.747Z,4.82
2023-01-06T11:09:47.903Z,5.72
2023-01-06T11:12:55.953Z,5.57
2023-01-06T11:16:02.144Z,4.53
2023-01-06T11:19:08.671Z,6.27
2023-01-06T11:25:34.604Z,4.20
2023-01-06T11:28:43.156Z,4.85
2023-01-06T11:31:51.232Z,4.68
2023-01-06T11:35:00.426Z,5.35
2023-01-06T11:38:05.789Z,5.38
2023-01-06T11:41:11.389Z,4.10
2023-01-06T11:44:21.183Z,5.18
2023-01-06T11:47:29.598Z,5.10
2023-01-06T11:50:35.292Z,5.60
2023-01-06T11:53:42.121Z,6.03
2023-01-06T11:57:00.351Z,5.38
2023-01-06T12:00:15.880Z,4.82
2023-01-06T12:03:27.319Z,5.07
2023-01-06T12:06:37.137Z,7.05
2023-01-06T12:09:45.590Z,6.35
2023-01-06T12:12:51.723Z,5.85
2023-01-06T12:16:03.174Z,6.28
2023-01-06T12:19:11.411Z,5.30
2023-01-06T12:22:23.429Z,4.72
2023-01-06T12:25:31.074Z,6.30
2023-01-06T12:28:37.134Z,7.93
2023-01-06T12:31:47.437Z,6.22
2023-01-06T12:34:53.538Z,6.05
2023-01-06T12:38:00.276Z,5.25
2023-01-06T12:41:08.632Z,6.05
2023-01-06T12:44:20.111Z,6.18
2023-01-06T12:47:31.566Z,4.78
2023-01-06T12:50:38.885Z,5.68
2023-01-06T12:57:02.356Z,4.53
2023-01-06T13:00:17.849Z,6.20
2023-01-06T13:03:36.988Z,7.18
2023-01-06T13:06:46.895Z,6.03
2023-01-06T13:09:58.447Z,4.85
2023-01-06T13:13:12.670Z,5.93
2023-01-06T13:16:20.843Z,5.28
2023-01-06T13:19:33.728Z,4.65
2023-01-06T13:22:45.224Z,3.45
2023-01-06T13:26:01.546Z,5.57
2023-01-06T13:29:12.720Z,6.80
2023-01-06T13:32:32.395Z,5.90
2023-01-06T13:35:54.064Z,6.20
2023-01-06T13:39:02.050Z,6.53
2023-01-06T13:42:09.035Z,5.53
2023-01-06T13:48:21.633Z,6.70
2023-01-06T13:51:31.927Z,5.85
2023-01-06T13:54:52.235Z,6.97
2023-01-06T13:57:57.853Z,6.38
2023-01-06T14:01:10.345Z,5.55
2023-01-06T14:04:30.839Z,5.70
2023-01-06T14:07:39.599Z,6.32
2023-01-06T14:10:46.026Z,5.68
2023-01-06T14:13:53.630Z,5.88
2023-01-06T14:16:59.871Z,6.13
2023-01-06T14:20:05.505Z,6.72
2023-01-06T14:23:24.405Z,6.63
2023-01-06T14:26:44.381Z,6.80
2023-01-06T14:30:07.112Z,8.45
2023-01-06T14:33:36.245Z,6.57
2023-01-06T14:36:41.925Z,5.63
2023-01-06T14:39:52.061Z,6.15
2023-01-06T14:42:59.109Z,6.03
2023-01-06T14:46:09.491Z,8.43
2023-01-06T14:49:19.309Z,7.53
2023-01-06T14:52:31.787Z,5.75
2023-01-06T14:55:42.926Z,7.60
2023-01-06T14:58:48.262Z,6.20
2023-01-06T15:02:11.208Z,5.63
2023-01-06T15:05:23.813Z,6.40
2023-01-06T15:08:29.686Z,6.40
2023-01-06T15:11:43.129Z,6.90
2023-01-06T15:14:48.800Z,5.60
2023-01-06T15:17:54.670Z,7.78
2023-01-06T15:21:01.062Z,7.75
2023-01-06T15:24:06.389Z,8.83
2023-01-06T15:27:15.703Z,7.50
2023-01-06T15:30:22.754Z,7.10
2023-01-06T15:33:28.980Z,7.18
2023-01-06T15:36:35.628Z,8.10
2023-01-06T15:39:42.895Z,7.43
2023-01-06T15:42:50.838Z,7.40
2023-01-06T15:46:00.711Z,7.35
2023-01-06T15:49:06.505Z,6.88
2023-01-06T15:52:16.660Z,6.93
2023-01-06T15:55:24.408Z,6.18
2023-01-06T15:58:33.845Z,7.07
2023-01-06T16:01:39.287Z,6.93
2023-01-06T16:04:49.222Z,8.55
2023-01-06T16:08:04.178Z,6.63
2023-01-06T16:11:12.990Z,6.93
2023-01-06T16:14:38.781Z,8.65
2023-01-06T16:17:49.412Z,7.13
2023-01-06T16:20:54.893Z,6.53
2023-01-06T16:24:01.414Z,6.50
2023-01-06T16:27:07.912Z,6.22
2023-01-06T16:30:22.937Z,8.45
2023-01-06T16:33:39.455Z,6.85
2023-01-06T16:36:44.800Z,5.70
2023-01-06T16:39:50.454Z,7.50
2023-01-06T16:43:00.591Z,6.65
2023-01-06T16:46:13.470Z,7.35
2023-01-06T16:49:19.051Z,6.10
2023-01-06T16:52:24.182Z,7.20
2023-01-06T16:55:29.998Z,5.45
2023-01-06T16:58:37.728Z,6.43
2023-01-06T17:01:46.827Z,5.82
2023-01-06T17:04:52.325Z,4.57
2023-01-06T17:08:00.571Z,4.93
2023-01-06T17:11:09.910Z,4.72
2023-01-06T17:14:17.735Z,5.03
2023-01-06T17:17:25.442Z,4.97
2023-01-06T17:20:32.329Z,4.20
2023-01-06T17:23:39.598Z,4.45
2023-01-06T17:26:49.036Z,4.32
2023-01-06T17:29:55.196Z,4.22
2023-01-06T17:33:03.321Z,2.97
2023-01-06T17:36:09.465Z,3.88
2023-01-06T17:39:20.732Z,4.32
2023-01-06T17:42:30.860Z,4.63
2023-01-06T17:45:37.439Z,3.42
2023-01-06T17:48:45.503Z,4.43
2023-01-06T17:51:52.585Z,3.65
2023-01-06T17:58:17.255Z,3.85
2023-01-06T18:01:24.902Z,4.25
2023-01-06T18:04:34.367Z,4.80
2023-01-06T18:07:39.885Z,4.30
2023-01-06T18:10:45.961Z,4.47
2023-01-06T18:13:52.672Z,3.28
2023-01-06T18:16:59.790Z,4.40
2023-01-06T18:20:08.318Z,4.82
2023-01-06T18:23:18.484Z,4.18
2023-01-06T18:26:35.099Z,5.15
2023-01-06T18:29:41.169Z,4.65
2023-01-06T18:32:46.696Z,3.47
2023-01-06T18:35:57.919Z,3.20
2023-01-06T18:39:03.154Z,3.80
2023-01-06T18:42:19.040Z,4.22
2023-01-06T18:45:26.033Z,4.05
2023-01-06T18:51:39.076Z,3.90
2023-01-06T18:54:44.505Z,4.22
2023-01-06T18:57:53.757Z,4.82
2023-01-06T19:01:00.202Z,3.53
2023-01-06T19:04:06.817Z,4.53
2023-01-06T19:07:18.579Z,3.95
2023-01-06T19:10:28.040Z,3.50
2023-01-06T19:13:33.829Z,2.88
2023-01-06T19:16:40.140Z,3.58
2023-01-06T19:19:45.787Z,3.33
2023-01-06T19:22:55.437Z,4.03
2023-01-06T19:26:04.048Z,2.67
2023-01-06T19:29:13.470Z,3.67
2023-01-06T19:32:18.996Z,3.17
2023-01-06T19:35:26.262Z,3.88
2023-01-06T19:38:37.690Z,3.63
2023-01-06T19:41:42.852Z,3.80
2023-01-06T19:44:50.184Z,3.33
2023-01-06T19:47:55.448Z,3.70
2023-01-06T19:51:05.558Z,2.95
2023-01-06T19:54:25.392Z,3.92
2023-01-06T19:57:31.943Z,3.50
2023-01-06T20:00:43.088Z,3.78
2023-01-06T20:03:49.369Z,3.03
2023-01-06T20:06:54.793Z,3.83
2023-01-06T20:10:03.142Z,4.00
2023-01-06T20:13:08.757Z,4.15
2023-01-06T20:16:14.131Z,3.47
2023-01-06T20:19:21.755Z,3.30
2023-01-06T20:22:27.734Z,3.20
2023-01-06T20:25:36.119Z,3.30
2023-01-06T20:28:41.663Z,4.32
2023-01-06T20:31:47.088Z,3.17
2023-01-06T20:34:52.610Z,4.35
2023-01-06T20:37:58.020Z,4.18
2023-01-06T20:41:06.993Z,3.92
2023-01-06T20:44:13.345Z,4.50
2023-01-06T20:47:18.972Z,3.90
2023-01-06T20:50:24.409Z,3.28
2023-01-06T20:53:29.914Z,3.55
2023-01-06T20:56:37.847Z,3.28
2023-01-06T20:59:43.103Z,4.10
2023-01-06T21:02:48.225Z,3.75
2023-01-06T21:05:54.109Z,3.72
2023-01-06T21:08:59.697Z,4.22
2023-01-06T21:12:07.856Z,2.58
2023-01-06T21:15:14.083Z,4.15
2023-01-06T21:18:19.425Z,4.15
2023-01-06T21:21:24.722Z,2.90
2023-01-06T21:24:30.177Z,3.08
2023-01-06T21:27:38.436Z,2.78
2023-01-06T21:30:43.969Z,3.70
2023-01-06T21:33:49.346Z,3.30
2023-01-06T21:36:55.105Z,3.83
2023-01-06T21:40:00.714Z,3.55
2023-01-06T21:43:11.614Z,3.47
2023-01-06T21:46:17.467Z,2.83
2023-01-06T21:49:23.016Z,2.67
2023-01-06T21:52:28.490Z,3.83
2023-01-06T21:55:34.130Z,4.95
2023-01-06T21:58:42.078Z,2.92
2023-01-06T22:01:47.482Z,3.10
2023-01-06T22:04:53.131Z,4.10
2023-01-06T22:07:58.395Z,3.95
2023-01-06T22:11:03.885Z,3.97
2023-01-06T22:14:12.072Z,4.57
2023-01-06T22:17:17.741Z,4.88
2023-01-06T22:20:22.814Z,2.33
2023-01-06T22:23:28.208Z,3.63
2023-01-06T22:26:33.893Z,3.90
2023-01-06T22:29:42.076Z,5.95
2023-01-06T22:32:47.436Z,4.40
2023-01-06T22:35:53.193Z,5.28
2023-01-06T22:38:58.480Z,6.18
2023-01-06T22:42:04.282Z,4.85
2023-01-06T22:45:13.124Z,3.90
2023-01-06T22:48:19.766Z,5.78
2023-01-06T22:51:25.017Z,3.70
2023-01-06T22:54:30.398Z,4.80
2023-01-06T22:57:36.066Z,4.90
2023-01-06T23:00:43.906Z,4.25
2023-01-06T23:03:49.376Z,4.68
2023-01-06T23:06:54.654Z,4.47
2023-01-06T23:10:00.056Z,3.63
2023-01-06T23:13:05.237Z,3.47
2023-01-06T23:16:14.153Z,4.82
2023-01-06T23:19:19.986Z,4.65
2023-01-06T23:22:25.218Z,5.80
2023-01-06T23:25:30.659Z,4.70
2023-01-06T23:28:36.482Z,3.75
2023-01-06T23:31:45.495Z,4.80
2023-01-06T23:34:50.823Z,4.28
2023-01-06T23:37:55.884Z,4.45
2023-01-06T23:41:04.605Z,4.05
2023-01-06T23:44:09.782Z,5.57
2023-01-06T23:47:17.681Z,4.22
2023-01-06T23:50:22.941Z,4.63
2023-01-06T23:53:28.822Z,5.43
2023-01-06T23:56:34.961Z,4.82
2023-01-06T23:59:40.446Z,5.63
